Time,TemperatureF,DewpointF,PressureIn,WindDirection,WindDirectionDegrees,WindSpeedMPH,WindSpeedGustMPH,Humidity,HourlyPrecipIn,Conditions,Clouds,dailyrainin,SolarRadiationWatts/m^2,SoftwareType,DateUTC
2013-10-25 00:00:00,35.1,31.6,30.17,NW,311,0.3,1.2,87,0.00,RA,SCT,0.00,0.0,WeatherDisplay:10.37,2013-10-25 04:00:00,
2013-10-25 00:01:00,35.1,31.6,30.17,NW,311,0.3,1.2,87,0.00,RA,SCT,0.00,0.0,WeatherDisplay:10.37,2013-10-25 04:01:00,
2013-10-25 00:02:00,35.1,31.6,30.17,NW,311,0.0,1.2,87,0.00,RA,SCT,0.00,0.0,WeatherDisplay:10.37,2013-10-25 04:02:00,
2013-10-25 00:03:00,35.0,31.5,30.17,NW,311,0.1,1.2,87,0.00,RA,SCT,0.00,0.0,WeatherDisplay:10.37,2013-10-25 04:03:00,
2013-10-25 00:04:00,35.1,31.6,30.17,NW,311,0.2,1.2,87,0.00,RA,SCT,0.00,0.0,WeatherDisplay:10.37,2013-10-25 04:04:00,
2013-10-25 00:09:00,34.9,31.7,30.17,NW,311,0.1,1.2,88,0.00,RA,SCT,0.00,0.0,WeatherDisplay:10.37,2013-10-25 04:09:00,
2013-10-25 00:14:00,34.8,31.6,30.17,NW,311,0.2,1.2,88,0.00,FEW,SCT,0.00,0.0,WeatherDisplay:10.37,2013-10-25 04:14:00,
2013-10-25 00:19:00,34.7,31.5,30.17,NW,311,0.3,1.2,88,0.00,FEW,SCT,0.00,0.0,WeatherDisplay:10.37,2013-10-25 04:19:00,
2013-10-25 00:24:00,34.7,31.5,30.17,NW,311,0.1,1.2,88,0.00,FEW,SCT,0.00,0.0,WeatherDisplay:10.37,2013-10-25 04:24:00,
2013-10-25 00:29:00,34.6,31.4,30.17,NW,311,0.2,2.3,88,0.00,FEW,SCT,0.00,0.0,WeatherDisplay:10.37,2013-10-25 04:29:00,
2013-10-25 00:34:00,34.6,31.7,30.17,NW,311,0.4,2.3,89,0.00,FEW,SCT,0.00,0.0,WeatherDisplay:10.37,2013-10-25 04:34:00,
2013-10-25 00:39:00,34.5,31.6,30.17,NW,311,0.0,1.0,89,0.00,FEW,SCT,0.00,0.0,WeatherDisplay:10.37,2013-10-25 04:39:00,
2013-10-25 00:44:00,34.4,31.5,30.17,NW,311,0.2,1.2,89,0.00,FEW,SCT,0.00,0.0,WeatherDisplay:10.37,2013-10-25 04:44:00,
2013-10-25 00:49:00,34.3,31.4,30.18,NW,311,0.4,1.2,89,0.00,FEW,SCT,0.00,0.0,WeatherDisplay:10.37,2013-10-25 04:49:00,
2013-10-25 00:54:00,34.3,31.4,30.18,NW,311,0.2,1.2,89,0.00,FEW,SCT,0.00,0.0,WeatherDisplay:10.37,2013-10-25 04:54:00,
2013-10-25 00:59:00,34.2,31.3,30.18,NW,311,0.1,1.2,89,0.00,FEW,SCT,0.00,0.0,WeatherDisplay:10.37,2013-10-25 04:59:00,
2013-10-25 01:04:00,34.2,31.3,30.18,NW,311,0.0,1.2,89,0.00,FEW,SCT,0.00,0.0,WeatherDisplay:10.37,2013-10-25 05:04:00,
2013-10-25 01:09:00,34.1,31.2,30.18,NW,311,0.0,1.2,89,0.00,FEW,SCT,0.00,0.0,WeatherDisplay:10.37,2013-10-25 05:09:00,
2013-10-25 01:14:00,34.1,31.5,30.18,NW,311,0.0,1.2,90,0.00,FEW,SCT,0.00,0.0,WeatherDisplay:10.37,2013-10-25 05:14:00,
2013-10-25 01:19:00,34.0,31.4,30.19,NW,311,0.4,1.2,90,0.00,FEW,SCT,0.00,0.0,WeatherDisplay:10.37,2013-10-25 05:19:00,
2013-10-25 01:24:00,34.0,31.4,30.19,NW,311,0.3,1.2,90,0.00,FEW,SCT,0.00,0.0,WeatherDisplay:10.37,2013-10-25 05:24:00,
2013-10-25 01:29:00,33.9,31.3,30.19,NW,311,0.1,1.2,90,0.00,FEW,SCT,0.00,0.0,WeatherDisplay:10.37,2013-10-25 05:29:00,
2013-10-25 01:34:00,33.8,31.2,30.19,NW,311,0.0,0.0,90,0.00,FEW,SCT,0.00,0.0,WeatherDisplay:10.37,2013-10-25 05:34:00,
2013-10-25 01:39:00,33.7,31.1,30.19,NW,311,0.0,0.0,90,0.00,FEW,SCT,0.00,0.0,WeatherDisplay:10.37,2013-10-25 05:39:00,
2013-10-25 01:44:00,33.6,31.0,30.19,NW,314,0.0,0.0,90,0.00,FEW,SCT,0.00,0.0,WeatherDisplay:10.37,2013-10-25 05:44:00,
2013-10-25 01:49:00,33.5,30.9,30.19,NW,314,0.0,0.0,90,0.00,FEW,SCT,0.00,0.0,WeatherDisplay:10.37,2013-10-25 05:49:00,
2013-10-25 01:54:00,33.4,30.8,30.19,NW,314,0.0,0.0,90,0.00,FEW,SCT,0.00,0.0,WeatherDisplay:10.37,2013-10-25 05:54:00,
2013-10-25 01:59:00,33.3,30.7,30.19,NW,314,0.0,0.0,90,0.00,FEW,SCT,0.00,0.0,WeatherDisplay:10.37,2013-10-25 05:59:00,
2013-10-25 02:04:00,33.2,30.9,30.19,NW,314,0.0,0.0,91,0.00,FEW,SCT,0.00,0.0,WeatherDisplay:10.37,2013-10-25 06:04:00,
2013-10-25 02:09:00,33.2,30.9,30.19,NW,314,0.0,1.2,91,0.00,FEW,SCT,0.00,0.0,WeatherDisplay:10.37,2013-10-25 06:09:00,
2013-10-25 02:14:00,33.2,30.9,30.19,NW,314,0.3,1.2,91,0.00,FEW,SCT,0.00,0.0,WeatherDisplay:10.37,2013-10-25 06:14:00,
2013-10-25 02:19:00,33.2,30.9,30.19,NW,314,0.0,0.0,91,0.00,FEW,SCT,0.00,0.0,WeatherDisplay:10.37,2013-10-25 06:19:00,
2013-10-25 02:24:00,33.1,30.8,30.19,NW,314,0.1,1.2,91,0.00,FEW,SCT,0.00,0.0,WeatherDisplay:10.37,2013-10-25 06:24:00,
2013-10-25 02:29:00,33.0,30.7,30.19,NW,314,0.3,1.2,91,0.00,FEW,SCT,0.00,0.0,WeatherDisplay:10.37,2013-10-25 06:29:00,
2013-10-25 02:34:00,33.0,30.7,30.20,NW,313,0.2,1.2,91,0.00,FEW,SCT,0.00,0.0,WeatherDisplay:10.37,2013-10-25 06:34:00,
2013-10-25 02:39:00,33.0,30.7,30.20,NW,313,0.0,0.0,91,0.00,FEW,SCT,0.00,0.0,WeatherDisplay:10.37,2013-10-25 06:39:00,
2013-10-25 02:44:00,32.9,30.6,30.20,NW,313,0.0,1.2,91,0.00,FEW,SCT,0.00,0.0,WeatherDisplay:10.37,2013-10-25 06:44:00,
2013-10-25 02:49:00,32.9,30.6,30.20,NW,313,0.0,1.2,91,0.00,FEW,SCT,0.00,0.0,WeatherDisplay:10.37,2013-10-25 06:49:00,
2013-10-25 02:54:00,32.8,30.5,30.20,NW,313,0.1,2.0,91,0.00,FEW,SCT,0.00,0.0,WeatherDisplay:10.37,2013-10-25 06:54:00,
2013-10-25 02:59:00,32.7,30.4,30.20,NW,313,0.0,0.0,91,0.00,FEW,SCT,0.00,0.0,WeatherDisplay:10.37,2013-10-25 06:59:00,
2013-10-25 03:04:00,32.7,30.4,30.21,NW,313,0.0,0.0,91,0.00,CLR,SCT,0.00,0.0,WeatherDisplay:10.37,2013-10-25 07:04:00,
2013-10-25 03:09:00,32.6,30.3,30.20,NW,313,0.0,0.0,91,0.00,CLR,SCT,0.00,0.0,WeatherDisplay:10.37,2013-10-25 07:09:00,
2013-10-25 03:14:00,32.6,30.5,30.21,NW,313,0.0,0.0,92,0.00,CLR,SCT,0.00,0.0,WeatherDisplay:10.37,2013-10-25 07:14:00,
2013-10-25 03:19:00,32.5,30.4,30.21,NW,313,0.0,0.0,92,0.00,CLR,SCT,0.00,0.0,WeatherDisplay:10.37,2013-10-25 07:19:00,
2013-10-25 03:24:00,32.5,30.2,30.21,NW,313,0.0,0.0,91,0.00,CLR,SCT,0.00,0.0,WeatherDisplay:10.37,2013-10-25 07:24:00,
2013-10-25 03:29:00,32.4,30.1,30.21,NW,313,0.0,0.0,91,0.00,CLR,SCT,0.00,0.0,WeatherDisplay:10.37,2013-10-25 07:29:00,
2013-10-25 03:34:00,32.4,30.3,30.21,NW,313,0.0,0.0,92,0.00,CLR,SCT,0.00,0.0,WeatherDisplay:10.37,2013-10-25 07:34:00,
2013-10-25 03:39:00,32.4,30.3,30.21,NW,313,0.0,0.0,92,0.00,CLR,SCT,0.00,0.0,WeatherDisplay:10.37,2013-10-25 07:39:00,
2013-10-25 03:44:00,32.3,30.2,30.21,NW,313,0.0,0.0,92,0.00,CLR,SCT,0.00,0.0,WeatherDisplay:10.37,2013-10-25 07:44:00,
2013-10-25 03:49:00,32.2,30.1,30.21,NW,313,0.0,0.0,92,0.00,CLR,SCT,0.00,0.0,WeatherDisplay:10.37,2013-10-25 07:49:00,
2013-10-25 03:54:00,32.2,30.1,30.21,NW,313,0.0,1.2,92,0.00,CLR,SCT,0.00,0.0,WeatherDisplay:10.37,2013-10-25 07:54:00,
2013-10-25 03:59:00,32.2,30.1,30.21,NW,313,0.1,2.3,92,0.00,CLR,SCT,0.00,0.0,WeatherDisplay:10.37,2013-10-25 07:59:00,
2013-10-25 04:04:00,32.2,30.1,30.21,NW,313,0.0,0.0,92,0.00,CLR,SCT,0.00,0.0,WeatherDisplay:10.37,2013-10-25 08:04:00,
2013-10-25 04:09:00,32.2,30.1,30.21,NW,313,0.1,1.2,92,0.00,CLR,SCT,0.00,0.0,WeatherDisplay:10.37,2013-10-25 08:09:00,
2013-10-25 04:14:00,32.2,30.1,30.21,NW,313,0.2,1.2,92,0.00,CLR,SCT,0.00,0.0,WeatherDisplay:10.37,2013-10-25 08:14:00,
2013-10-25 04:19:00,32.1,30.0,30.21,NW,313,0.0,1.2,92,0.00,CLR,SCT,0.00,0.0,WeatherDisplay:10.37,2013-10-25 08:19:00,
2013-10-25 04:24:00,32.1,30.0,30.22,NW,313,0.0,0.0,92,0.00,CLR,SCT,0.00,0.0,WeatherDisplay:10.37,2013-10-25 08:24:00,
2013-10-25 04:29:00,32.1,30.0,30.22,NW,313,0.0,0.0,92,0.00,CLR,SCT,0.00,0.0,WeatherDisplay:10.37,2013-10-25 08:29:00,
2013-10-25 04:34:00,32.0,29.9,30.22,NW,313,0.0,0.0,92,0.00,CLR,SCT,0.00,0.0,WeatherDisplay:10.37,2013-10-25 08:34:00,
2013-10-25 04:39:00,32.0,29.9,30.22,NW,313,0.1,1.2,92,0.00,CLR,SCT,0.00,0.0,WeatherDisplay:10.37,2013-10-25 08:39:00,
2013-10-25 04:44:00,32.0,29.9,30.22,NW,313,0.0,0.0,92,0.00,CLR,SCT,0.00,0.0,WeatherDisplay:10.37,2013-10-25 08:44:00,
2013-10-25 04:49:00,31.9,29.8,30.22,NW,313,0.0,0.0,92,0.00,CLR,SCT,0.00,0.0,WeatherDisplay:10.37,2013-10-25 08:49:00,
2013-10-25 04:54:00,31.8,29.7,30.22,NW,313,0.0,0.0,92,0.00,CLR,SCT,0.00,0.0,WeatherDisplay:10.37,2013-10-25 08:54:00,
2013-10-25 04:59:00,31.7,29.6,30.22,NW,313,0.0,0.0,92,0.00,CLR,SCT,0.00,0.0,WeatherDisplay:10.37,2013-10-25 08:59:00,
2013-10-25 05:04:00,31.6,29.5,30.23,NW,313,0.0,0.0,92,0.00,CLR,SCT,0.00,0.0,WeatherDisplay:10.37,2013-10-25 09:04:00,
2013-10-25 05:09:00,31.6,29.8,30.23,NW,313,0.0,0.0,93,0.00,CLR,SCT,0.00,0.0,WeatherDisplay:10.37,2013-10-25 09:09:00,
2013-10-25 05:14:00,31.5,29.7,30.23,NW,313,0.0,0.0,93,0.00,CLR,SCT,0.00,0.0,WeatherDisplay:10.37,2013-10-25 09:14:00,
2013-10-25 05:19:00,31.6,29.8,30.23,NW,313,0.0,0.0,93,0.00,CLR,SCT,0.00,0.0,WeatherDisplay:10.37,2013-10-25 09:19:00,
2013-10-25 05:24:00,31.6,29.8,30.23,NW,313,0.0,0.0,93,0.00,CLR,SCT,0.00,0.0,WeatherDisplay:10.37,2013-10-25 09:24:00,
2013-10-25 05:29:00,31.5,29.7,30.23,NW,313,0.0,0.0,93,0.00,CLR,SCT,0.00,0.0,WeatherDisplay:10.37,2013-10-25 09:29:00,
2013-10-25 05:34:00,31.6,29.8,30.23,NW,313,0.0,1.2,93,0.00,CLR,SCT,0.00,0.0,WeatherDisplay:10.37,2013-10-25 09:34:00,
2013-10-25 05:39:00,31.6,29.8,30.23,NW,313,0.1,1.2,93,0.00,CLR,SCT,0.00,0.0,WeatherDisplay:10.37,2013-10-25 09:39:00,
2013-10-25 05:44:00,31.6,29.8,30.24,NW,313,0.0,0.0,93,0.00,CLR,SCT,0.00,0.0,WeatherDisplay:10.37,2013-10-25 09:44:00,
2013-10-25 05:49:00,31.7,29.9,30.24,NW,313,0.0,1.2,93,0.00,CLR,SCT,0.00,0.0,WeatherDisplay:10.37,2013-10-25 09:49:00,
2013-10-25 05:54:00,31.7,29.9,30.24,NW,313,0.3,2.3,93,0.00,CLR,SCT,0.00,0.0,WeatherDisplay:10.37,2013-10-25 09:54:00,
2013-10-25 05:59:00,31.8,30.0,30.24,NW,313,0.0,0.0,93,0.00,CLR,SCT,0.00,0.0,WeatherDisplay:10.37,2013-10-25 09:59:00,
2013-10-25 06:04:00,31.8,30.0,30.25,NW,313,0.0,0.0,93,0.00,CLR,SCT,0.00,0.0,WeatherDisplay:10.37,2013-10-25 10:04:00,
2013-10-25 06:09:00,31.8,30.0,30.25,NW,313,0.0,0.0,93,0.00,CLR,SCT,0.00,0.0,WeatherDisplay:10.37,2013-10-25 10:09:00,
2013-10-25 06:14:00,31.8,30.0,30.25,NW,313,0.0,1.2,93,0.00,CLR,SCT,0.00,0.0,WeatherDisplay:10.37,2013-10-25 10:14:00,
2013-10-25 06:19:00,31.8,30.3,30.25,NW,313,0.4,2.3,94,0.00,CLR,SCT,0.00,0.0,WeatherDisplay:10.37,2013-10-25 10:19:00,
2013-10-25 06:24:00,31.9,30.4,30.26,NW,313,0.1,1.2,94,0.00,CLR,SCT,0.00,0.0,WeatherDisplay:10.37,2013-10-25 10:24:00,
2013-10-25 06:29:00,31.9,30.4,30.26,NW,313,0.7,2.3,94,0.00,CLR,SCT,0.00,0.0,WeatherDisplay:10.37,2013-10-25 10:29:00,
2013-10-25 06:34:00,32.1,30.6,30.26,NW,313,0.6,2.3,94,0.00,CLR,SCT,0.00,0.0,WeatherDisplay:10.37,2013-10-25 10:34:00,
2013-10-25 06:39:00,32.3,30.8,30.26,NW,315,0.5,3.5,94,0.00,CLR,SCT,0.00,0.0,WeatherDisplay:10.37,2013-10-25 10:39:00,
2013-10-25 06:44:00,32.4,30.9,30.27,NW,312,0.7,2.0,94,0.00,CLR,SCT,0.00,0.0,WeatherDisplay:10.37,2013-10-25 10:44:00,
2013-10-25 06:49:00,32.5,31.0,30.27,WNW,302,1.0,2.3,94,0.00,CLR,SCT,0.00,0.0,WeatherDisplay:10.37,2013-10-25 10:49:00,
2013-10-25 06:54:00,32.6,31.1,30.26,WNW,302,0.1,1.2,94,0.00,CLR,SCT,0.00,0.0,WeatherDisplay:10.37,2013-10-25 10:54:00,
2013-10-25 06:59:00,32.6,30.8,30.27,WNW,292,0.1,1.2,93,0.00,CLR,SCT,0.00,0.0,WeatherDisplay:10.37,2013-10-25 10:59:00,
2013-10-25 07:04:00,32.6,30.8,30.26,WNW,292,0.0,0.0,93,0.00,BKN,SCT,0.00,0.0,WeatherDisplay:10.37,2013-10-25 11:04:00,
2013-10-25 07:09:00,32.6,30.8,30.27,WNW,292,0.0,1.2,93,0.00,BKN,SCT,0.00,0.0,WeatherDisplay:10.37,2013-10-25 11:09:00,
2013-10-25 07:14:00,32.7,31.2,30.27,WNW,297,0.7,2.3,94,0.00,BKN,SCT,0.00,0.0,WeatherDisplay:10.37,2013-10-25 11:14:00,
2013-10-25 07:19:00,32.8,31.3,30.27,WNW,294,0.8,2.3,94,0.00,BKN,SCT,0.00,0.0,WeatherDisplay:10.37,2013-10-25 11:19:00,
2013-10-25 07:24:00,32.9,31.4,30.27,WNW,295,0.3,1.2,94,0.00,BKN,SCT,0.00,0.0,WeatherDisplay:10.37,2013-10-25 11:24:00,
2013-10-25 07:29:00,33.0,31.5,30.27,WNW,295,0.6,2.3,94,0.00,BKN,SCT,0.00,0.0,WeatherDisplay:10.37,2013-10-25 11:29:00,
2013-10-25 07:34:00,33.2,31.7,30.27,WNW,295,0.1,1.2,94,0.00,BKN,SCT,0.00,0.0,WeatherDisplay:10.37,2013-10-25 11:34:00,
2013-10-25 07:39:00,33.3,31.8,30.27,WNW,299,0.3,1.2,94,0.00,BKN,SCT,0.00,0.0,WeatherDisplay:10.37,2013-10-25 11:39:00,
2013-10-25 07:44:00,33.4,31.9,30.27,NW,312,0.9,2.3,94,0.00,BKN,SCT,0.00,0.0,WeatherDisplay:10.37,2013-10-25 11:44:00,
2013-10-25 07:49:00,33.5,31.7,30.28,NW,314,0.7,3.5,93,0.00,BKN,SCT,0.00,0.0,WeatherDisplay:10.37,2013-10-25 11:49:00,
2013-10-25 07:54:00,33.6,32.1,30.28,WNW,296,0.6,3.5,94,0.00,BKN,SCT,0.00,0.0,WeatherDisplay:10.37,2013-10-25 11:54:00,
2013-10-25 07:59:00,33.8,32.3,30.28,WNW,300,0.2,2.3,94,0.00,BKN,SCT,0.00,0.0,WeatherDisplay:10.37,2013-10-25 11:59:00,
2013-10-25 08:04:00,33.9,32.1,30.29,NW,313,0.3,1.2,93,0.00,OVC,SCT,0.00,0.0,WeatherDisplay:10.37,2013-10-25 12:04:00,
2013-10-25 08:09:00,34.0,32.2,30.29,NW,313,0.1,1.2,93,0.00,OVC,SCT,0.00,0.0,WeatherDisplay:10.37,2013-10-25 12:09:00,
2013-10-25 08:14:00,34.2,32.4,30.29,NW,313,0.2,2.3,93,0.00,OVC,SCT,0.00,7.0,WeatherDisplay:10.37,2013-10-25 12:14:00,
2013-10-25 08:19:00,34.3,32.5,30.29,NW,304,0.2,1.2,93,0.00,OVC,SCT,0.00,9.0,WeatherDisplay:10.37,2013-10-25 12:19:00,
2013-10-25 08:24:00,34.3,32.5,30.29,NW,304,0.1,1.2,93,0.00,OVC,SCT,0.00,11.0,WeatherDisplay:10.37,2013-10-25 12:24:00,
2013-10-25 08:29:00,34.5,32.7,30.29,West,261,0.2,2.3,93,0.00,OVC,SCT,0.00,14.0,WeatherDisplay:10.37,2013-10-25 12:29:00,
2013-10-25 08:34:00,34.6,32.8,30.29,NW,309,1.0,3.5,93,0.00,OVC,SCT,0.00,14.0,WeatherDisplay:10.37,2013-10-25 12:34:00,
2013-10-25 08:39:00,34.8,33.0,30.30,NW,309,0.2,1.2,93,0.00,OVC,SCT,0.00,16.0,WeatherDisplay:10.37,2013-10-25 12:39:00,
2013-10-25 08:44:00,35.0,32.9,30.30,NW,306,1.0,2.3,92,0.00,OVC,SCT,0.00,21.0,WeatherDisplay:10.37,2013-10-25 12:44:00,
2013-10-25 08:49:00,35.0,32.9,30.30,NW,313,1.4,3.5,92,0.00,OVC,SCT,0.00,39.0,WeatherDisplay:10.37,2013-10-25 12:49:00,
2013-10-25 08:54:00,35.2,33.1,30.31,NW,309,0.7,3.5,92,0.00,OVC,SCT,0.00,35.0,WeatherDisplay:10.37,2013-10-25 12:54:00,
2013-10-25 08:59:00,35.3,32.9,30.31,NW,321,0.7,2.3,91,0.00,OVC,SCT,0.00,44.0,WeatherDisplay:10.37,2013-10-25 12:59:00,
2013-10-25 09:04:00,35.4,33.0,30.31,NW,326,1.0,3.5,91,0.00,BKN,SCT,0.00,39.0,WeatherDisplay:10.37,2013-10-25 13:04:00,
2013-10-25 09:09:00,35.6,33.2,30.31,WNW,298,1.9,3.5,91,0.00,BKN,SCT,0.00,56.0,WeatherDisplay:10.37,2013-10-25 13:09:00,
2013-10-25 09:14:00,35.8,33.4,30.31,NW,314,0.2,2.3,91,0.00,BKN,SCT,0.00,74.0,WeatherDisplay:10.37,2013-10-25 13:14:00,
2013-10-25 09:19:00,35.9,33.5,30.31,NW,314,0.4,1.2,91,0.00,BKN,SCT,0.00,53.0,WeatherDisplay:10.37,2013-10-25 13:19:00,
2013-10-25 09:24:00,36.1,33.5,30.31,NW,306,0.4,1.2,90,0.00,BKN,SCT,0.00,63.0,WeatherDisplay:10.37,2013-10-25 13:24:00,
2013-10-25 09:29:00,36.2,33.5,30.31,NW,306,0.0,0.0,90,0.00,BKN,SCT,0.00,60.0,WeatherDisplay:10.37,2013-10-25 13:29:00,
2013-10-25 09:34:00,36.4,33.7,30.32,WNW,296,1.5,3.5,90,0.00,BKN,SCT,0.00,67.0,WeatherDisplay:10.37,2013-10-25 13:34:00,
2013-10-25 09:39:00,36.6,33.9,30.32,WNW,296,0.4,1.0,90,0.00,BKN,SCT,0.00,63.0,WeatherDisplay:10.37,2013-10-25 13:39:00,
2013-10-25 09:44:00,36.8,34.1,30.32,WNW,298,0.2,1.2,90,0.00,BKN,SCT,0.00,76.0,WeatherDisplay:10.37,2013-10-25 13:44:00,
2013-10-25 09:49:00,37.1,34.2,30.32,NW,313,0.8,2.3,89,0.00,BKN,SCT,0.00,111.0,WeatherDisplay:10.37,2013-10-25 13:49:00,
2013-10-25 09:54:00,37.3,34.4,30.32,NW,313,1.8,3.5,89,0.00,BKN,SCT,0.00,88.0,WeatherDisplay:10.37,2013-10-25 13:54:00,
2013-10-25 09:59:00,37.5,34.3,30.32,NW,316,0.3,1.2,88,0.00,BKN,SCT,0.00,83.0,WeatherDisplay:10.37,2013-10-25 13:59:00,
2013-10-25 10:04:00,37.7,34.5,30.32,NW,306,1.2,2.3,88,0.00,OVC,SCT,0.00,79.0,WeatherDisplay:10.37,2013-10-25 14:04:00,
2013-10-25 10:09:00,37.9,34.7,30.32,NW,323,1.6,4.0,88,0.00,OVC,SCT,0.00,123.0,WeatherDisplay:10.37,2013-10-25 14:09:00,
2013-10-25 10:14:00,38.2,34.7,30.32,WNW,292,1.4,3.5,87,0.00,OVC,SCT,0.00,132.0,WeatherDisplay:10.37,2013-10-25 14:14:00,
2013-10-25 10:19:00,38.4,34.9,30.32,WNW,294,0.7,1.2,87,0.00,OVC,SCT,0.00,118.0,WeatherDisplay:10.37,2013-10-25 14:19:00,
2013-10-25 10:24:00,38.8,35.3,30.32,WNW,297,0.2,1.2,87,0.00,OVC,SCT,0.00,70.0,WeatherDisplay:10.37,2013-10-25 14:24:00,
2013-10-25 10:29:00,39.4,35.6,30.32,WNW,290,1.2,3.5,86,0.00,OVC,SCT,0.00,109.0,WeatherDisplay:10.37,2013-10-25 14:29:00,
2013-10-25 10:34:00,39.9,35.8,30.32,WNW,300,0.4,3.0,85,0.00,OVC,SCT,0.00,234.0,WeatherDisplay:10.37,2013-10-25 14:34:00,
2013-10-25 10:39:00,40.4,35.9,30.32,NW,315,2.9,3.0,84,0.00,OVC,SCT,0.00,81.0,WeatherDisplay:10.37,2013-10-25 14:39:00,
2013-10-25 10:44:00,40.8,35.7,30.32,NW,314,0.3,2.3,82,0.00,OVC,SCT,0.00,76.0,WeatherDisplay:10.37,2013-10-25 14:44:00,
2013-10-25 10:49:00,41.4,36.3,30.32,West,269,1.4,3.0,82,0.00,OVC,SCT,0.00,77.0,WeatherDisplay:10.37,2013-10-25 14:49:00,
2013-10-25 10:54:00,42.0,36.3,30.32,NW,318,1.7,3.5,80,0.00,OVC,SCT,0.00,290.0,WeatherDisplay:10.37,2013-10-25 14:54:00,
2013-10-25 10:59:00,42.4,36.0,30.32,NW,309,2.6,5.8,78,0.00,OVC,SCT,0.00,176.0,WeatherDisplay:10.37,2013-10-25 14:59:00,
2013-10-25 11:04:00,42.4,35.7,30.31,WNW,299,0.6,3.5,77,0.00,SCT,,0.00,74.0,WeatherDisplay:10.37,2013-10-25 15:04:00,
2013-10-25 11:09:00,42.7,36.0,30.31,WNW,299,0.4,2.3,77,0.00,SCT,,0.00,97.0,WeatherDisplay:10.37,2013-10-25 15:09:00,
2013-10-25 11:14:00,43.3,36.2,30.31,NW,321,1.8,3.5,76,0.00,SCT,,0.00,58.0,WeatherDisplay:10.37,2013-10-25 15:14:00,
2013-10-25 11:19:00,43.2,35.8,30.31,WNW,298,0.7,1.2,75,0.00,SCT,,0.00,53.0,WeatherDisplay:10.37,2013-10-25 15:19:00,
2013-10-25 11:24:00,43.3,35.6,30.31,West,278,0.7,4.0,74,0.00,SCT,,0.00,118.0,WeatherDisplay:10.37,2013-10-25 15:24:00,
2013-10-25 11:29:00,43.5,35.4,30.31,NW,307,1.2,3.5,73,0.00,SCT,,0.00,162.0,WeatherDisplay:10.37,2013-10-25 15:29:00,
2013-10-25 11:34:00,44.0,35.9,30.31,NW,306,0.1,1.2,73,0.00,SCT,,0.00,163.0,WeatherDisplay:10.37,2013-10-25 15:34:00,
2013-10-25 11:39:00,44.5,35.7,30.31,NNW,333,0.6,3.5,71,0.00,SCT,,0.00,213.0,WeatherDisplay:10.37,2013-10-25 15:39:00,
2013-10-25 11:44:00,44.8,35.6,30.31,NW,318,2.4,2.4,70,0.00,SCT,,0.00,93.0,WeatherDisplay:10.37,2013-10-25 15:44:00,
2013-10-25 11:49:00,44.7,35.1,30.31,NW,324,1.5,4.6,69,0.00,SCT,,0.00,95.0,WeatherDisplay:10.37,2013-10-25 15:49:00,
2013-10-25 11:54:00,44.3,34.4,30.31,NW,321,0.9,2.3,68,0.00,SCT,,0.00,76.0,WeatherDisplay:10.37,2013-10-25 15:54:00,
2013-10-25 11:59:00,44.2,35.0,30.31,WSW,256,0.4,1.2,70,0.00,SCT,,0.00,134.0,WeatherDisplay:10.37,2013-10-25 15:59:00,
2013-10-25 12:04:00,44.3,34.4,30.31,NW,315,0.1,2.3,68,0.00,BKN,SCT,0.00,107.0,WeatherDisplay:10.37,2013-10-25 16:04:00,
2013-10-25 12:09:00,44.6,34.7,30.31,West,268,1.2,3.5,68,0.00,BKN,SCT,0.00,724.0,WeatherDisplay:10.37,2013-10-25 16:09:00,
2013-10-25 12:14:00,45.6,35.6,30.31,NW,314,1.4,3.5,68,0.00,BKN,SCT,0.00,673.0,WeatherDisplay:10.37,2013-10-25 16:14:00,
2013-10-25 12:19:00,46.3,35.2,30.31,NW,315,0.2,1.2,65,0.00,BKN,SCT,0.00,223.0,WeatherDisplay:10.37,2013-10-25 16:19:00,
2013-10-25 12:24:00,46.6,34.7,30.31,WNW,298,1.4,4.6,63,0.00,BKN,SCT,0.00,666.0,WeatherDisplay:10.37,2013-10-25 16:24:00,
2013-10-25 12:29:00,47.3,34.9,30.31,NW,321,2.4,3.0,62,0.00,BKN,SCT,0.00,197.0,WeatherDisplay:10.37,2013-10-25 16:29:00,
2013-10-25 12:34:00,47.2,34.4,30.30,NW,319,1.0,3.5,61,0.00,BKN,SCT,0.00,227.0,WeatherDisplay:10.37,2013-10-25 16:34:00,
2013-10-25 12:39:00,46.9,33.3,30.30,NW,319,0.5,3.0,59,0.00,BKN,SCT,0.00,102.0,WeatherDisplay:10.37,2013-10-25 16:39:00,
2013-10-25 12:44:00,46.4,33.3,30.30,NW,318,0.9,3.5,60,0.00,BKN,SCT,0.00,160.0,WeatherDisplay:10.37,2013-10-25 16:44:00,
2013-10-25 12:49:00,46.0,32.9,30.30,NW,312,1.5,2.3,60,0.00,BKN,SCT,0.00,153.0,WeatherDisplay:10.37,2013-10-25 16:49:00,
2013-10-25 12:54:00,46.2,33.5,30.30,NW,317,2.3,3.5,61,0.00,BKN,SCT,0.00,332.0,WeatherDisplay:10.37,2013-10-25 16:54:00,
2013-10-25 12:59:00,46.2,33.5,30.30,NW,308,0.7,2.3,61,0.00,BKN,SCT,0.00,185.0,WeatherDisplay:10.37,2013-10-25 16:59:00,
2013-10-25 13:04:00,46.9,34.1,30.29,West,268,1.0,3.5,61,0.00,BKN,SCT,0.00,770.0,WeatherDisplay:10.37,2013-10-25 17:04:00,
2013-10-25 13:09:00,47.7,33.2,30.29,NW,321,1.2,3.5,57,0.00,BKN,SCT,0.00,810.0,WeatherDisplay:10.37,2013-10-25 17:09:00,
2013-10-25 13:14:00,47.6,33.1,30.29,NW,309,0.7,1.2,57,0.00,BKN,SCT,0.00,104.0,WeatherDisplay:10.37,2013-10-25 17:14:00,
2013-10-25 13:19:00,47.1,31.3,30.28,West,279,0.4,2.3,54,0.00,BKN,SCT,0.00,49.0,WeatherDisplay:10.37,2013-10-25 17:19:00,
2013-10-25 13:24:00,46.6,31.7,30.29,NW,304,0.9,3.5,56,0.00,BKN,SCT,0.00,107.0,WeatherDisplay:10.37,2013-10-25 17:24:00,
2013-10-25 13:29:00,46.2,31.8,30.28,NW,316,0.6,3.0,57,0.00,BKN,SCT,0.00,185.0,WeatherDisplay:10.37,2013-10-25 17:29:00,
2013-10-25 13:34:00,46.1,31.7,30.28,NW,323,1.5,3.5,57,0.00,BKN,SCT,0.00,174.0,WeatherDisplay:10.37,2013-10-25 17:34:00,
2013-10-25 13:39:00,46.1,31.7,30.28,NW,318,1.4,3.5,57,0.00,BKN,SCT,0.00,162.0,WeatherDisplay:10.37,2013-10-25 17:39:00,
2013-10-25 13:44:00,46.1,32.1,30.28,NW,306,0.0,2.3,58,0.00,BKN,SCT,0.00,172.0,WeatherDisplay:10.37,2013-10-25 17:44:00,
2013-10-25 13:49:00,46.3,31.9,30.28,NW,308,2.9,4.0,57,0.00,BKN,SCT,0.00,221.0,WeatherDisplay:10.37,2013-10-25 17:49:00,
2013-10-25 13:54:00,46.6,31.3,30.28,NW,304,0.5,2.3,55,0.00,BKN,SCT,0.00,538.0,WeatherDisplay:10.37,2013-10-25 17:54:00,
2013-10-25 13:59:00,47.6,33.1,30.28,NW,307,0.8,2.3,57,0.00,BKN,SCT,0.00,380.0,WeatherDisplay:10.37,2013-10-25 17:59:00,
2013-10-25 14:04:00,48.1,31.8,30.27,West,273,0.8,3.5,53,0.00,BKN,SCT,0.00,200.0,WeatherDisplay:10.37,2013-10-25 18:04:00,
2013-10-25 14:09:00,47.8,31.0,30.27,WNW,294,2.0,3.5,52,0.00,BKN,SCT,0.00,93.0,WeatherDisplay:10.37,2013-10-25 18:09:00,
2013-10-25 14:14:00,47.4,31.1,30.27,NW,317,2.0,3.5,53,0.00,BKN,SCT,0.00,86.0,WeatherDisplay:10.37,2013-10-25 18:14:00,
2013-10-25 14:19:00,46.9,30.6,30.27,NW,318,1.4,3.5,53,0.00,BKN,SCT,0.00,135.0,WeatherDisplay:10.37,2013-10-25 18:19:00,
2013-10-25 14:24:00,46.5,30.3,30.27,NW,309,2.3,3.5,53,0.00,BKN,SCT,0.00,123.0,WeatherDisplay:10.37,2013-10-25 18:24:00,
2013-10-25 14:29:00,46.3,30.1,30.27,SSW,194,1.7,3.5,53,0.00,BKN,SCT,0.00,160.0,WeatherDisplay:10.37,2013-10-25 18:29:00,
2013-10-25 14:34:00,46.2,30.5,30.27,SSW,202,1.0,3.5,54,0.00,BKN,SCT,0.00,258.0,WeatherDisplay:10.37,2013-10-25 18:34:00,
2013-10-25 14:39:00,46.7,31.4,30.26,WNW,291,2.7,4.6,55,0.00,BKN,SCT,0.00,188.0,WeatherDisplay:10.37,2013-10-25 18:39:00,
2013-10-25 14:44:00,47.5,33.0,30.26,NW,323,1.4,4.6,57,0.00,BKN,SCT,0.00,645.0,WeatherDisplay:10.37,2013-10-25 18:44:00,
2013-10-25 14:49:00,48.6,33.1,30.26,West,280,0.8,2.3,55,0.00,BKN,SCT,0.00,668.0,WeatherDisplay:10.37,2013-10-25 18:49:00,
2013-10-25 14:54:00,49.4,32.5,30.26,West,279,1.6,4.6,52,0.00,BKN,SCT,0.00,79.0,WeatherDisplay:10.37,2013-10-25 18:54:00,
2013-10-25 14:59:00,49.2,31.3,30.26,West,267,2.1,4.6,50,0.00,BKN,SCT,0.00,635.0,WeatherDisplay:10.37,2013-10-25 18:59:00,
2013-10-25 15:04:00,48.7,30.4,30.26,West,262,1.0,2.3,49,0.00,BKN,SCT,0.00,151.0,WeatherDisplay:10.37,2013-10-25 19:04:00,
2013-10-25 15:09:00,48.6,30.8,30.26,WNW,285,2.6,6.9,50,0.00,BKN,SCT,0.00,589.0,WeatherDisplay:10.37,2013-10-25 19:09:00,
2013-10-25 15:14:00,48.7,30.9,30.26,West,265,0.9,3.5,50,0.00,BKN,SCT,0.00,165.0,WeatherDisplay:10.37,2013-10-25 19:14:00,
2013-10-25 15:19:00,49.0,31.2,30.25,West,266,0.5,3.5,50,0.00,BKN,SCT,0.00,448.0,WeatherDisplay:10.37,2013-10-25 19:19:00,
2013-10-25 15:24:00,49.7,31.8,30.25,South,188,1.5,4.0,50,0.00,BKN,SCT,0.00,617.0,WeatherDisplay:10.37,2013-10-25 19:24:00,
2013-10-25 15:29:00,49.9,31.0,30.25,WNW,288,2.9,6.9,48,0.00,BKN,SCT,0.00,132.0,WeatherDisplay:10.37,2013-10-25 19:29:00,
2013-10-25 15:34:00,48.8,30.5,30.25,NW,315,1.7,4.0,49,0.00,BKN,SCT,0.00,156.0,WeatherDisplay:10.37,2013-10-25 19:34:00,
2013-10-25 15:39:00,48.5,31.2,30.25,South,185,1.1,3.5,51,0.00,BKN,SCT,0.00,603.0,WeatherDisplay:10.37,2013-10-25 19:39:00,
2013-10-25 15:44:00,48.8,31.9,30.25,NW,313,0.2,2.3,52,0.00,BKN,SCT,0.00,127.0,WeatherDisplay:10.37,2013-10-25 19:44:00,
2013-10-25 15:49:00,48.5,31.2,30.25,West,259,1.0,3.5,51,0.00,BKN,SCT,0.00,53.0,WeatherDisplay:10.37,2013-10-25 19:49:00,
2013-10-25 15:54:00,47.8,31.0,30.25,WNW,290,1.0,3.5,52,0.00,BKN,SCT,0.00,47.0,WeatherDisplay:10.37,2013-10-25 19:54:00,
2013-10-25 15:59:00,47.0,30.7,30.25,WNW,296,1.4,3.5,53,0.00,BKN,SCT,0.00,37.0,WeatherDisplay:10.37,2013-10-25 19:59:00,
2013-10-25 16:04:00,46.3,31.4,30.25,West,263,0.6,3.5,56,0.00,BKN,SCT,0.00,35.0,WeatherDisplay:10.37,2013-10-25 20:04:00,
2013-10-25 16:09:00,45.8,31.4,30.25,WNW,302,0.3,2.3,57,0.00,BKN,SCT,0.00,35.0,WeatherDisplay:10.37,2013-10-25 20:09:00,
2013-10-25 16:14:00,45.6,31.7,30.25,West,270,0.9,2.3,58,0.00,BKN,SCT,0.00,33.0,WeatherDisplay:10.37,2013-10-25 20:14:00,
2013-10-25 16:19:00,45.4,31.9,30.25,NW,315,0.8,3.5,59,0.00,BKN,SCT,0.00,33.0,WeatherDisplay:10.37,2013-10-25 20:19:00,
2013-10-25 16:24:00,45.2,31.7,30.25,WSW,251,1.3,4.6,59,0.00,BKN,SCT,0.00,42.0,WeatherDisplay:10.37,2013-10-25 20:24:00,
2013-10-25 16:29:00,45.1,32.0,30.25,WNW,293,0.2,2.0,60,0.00,BKN,SCT,0.00,67.0,WeatherDisplay:10.37,2013-10-25 20:29:00,
2013-10-25 16:34:00,45.2,32.1,30.25,West,276,1.8,6.9,60,0.00,BKN,SCT,0.00,98.0,WeatherDisplay:10.37,2013-10-25 20:34:00,
2013-10-25 16:39:00,45.3,32.2,30.25,West,264,0.0,2.3,60,0.00,BKN,SCT,0.00,135.0,WeatherDisplay:10.37,2013-10-25 20:39:00,
2013-10-25 16:44:00,45.7,32.6,30.25,NNW,344,0.4,2.0,60,0.00,BKN,SCT,0.00,105.0,WeatherDisplay:10.37,2013-10-25 20:44:00,
2013-10-25 16:49:00,45.8,32.3,30.25,NW,307,1.5,3.5,59,0.00,BKN,SCT,0.00,77.0,WeatherDisplay:10.37,2013-10-25 20:49:00,
2013-10-25 16:54:00,45.6,32.1,30.25,West,275,0.9,3.5,59,0.00,BKN,SCT,0.00,54.0,WeatherDisplay:10.37,2013-10-25 20:54:00,
2013-10-25 16:59:00,45.6,32.9,30.25,West,275,0.0,1.2,61,0.00,BKN,SCT,0.00,44.0,WeatherDisplay:10.37,2013-10-25 20:59:00,
2013-10-25 17:04:00,45.5,32.4,30.25,WNW,296,0.9,3.5,60,0.00,BKN,SCT,0.00,44.0,WeatherDisplay:10.37,2013-10-25 21:04:00,
2013-10-25 17:09:00,45.4,32.3,30.24,West,262,0.5,3.0,60,0.00,BKN,SCT,0.00,58.0,WeatherDisplay:10.37,2013-10-25 21:09:00,
2013-10-25 17:14:00,45.4,32.3,30.24,WNW,286,0.0,2.3,60,0.00,BKN,SCT,0.00,51.0,WeatherDisplay:10.37,2013-10-25 21:14:00,
2013-10-25 17:19:00,45.4,32.7,30.24,West,276,0.0,1.2,61,0.00,BKN,SCT,0.00,53.0,WeatherDisplay:10.37,2013-10-25 21:19:00,
2013-10-25 17:24:00,45.4,32.7,30.24,West,268,0.0,2.3,61,0.00,BKN,SCT,0.00,51.0,WeatherDisplay:10.37,2013-10-25 21:24:00,
2013-10-25 17:29:00,45.3,32.6,30.23,WSW,244,0.0,3.5,61,0.00,BKN,SCT,0.00,60.0,WeatherDisplay:10.37,2013-10-25 21:29:00,
2013-10-25 17:34:00,45.3,32.6,30.23,WNW,292,1.2,3.5,61,0.00,BKN,SCT,0.00,53.0,WeatherDisplay:10.37,2013-10-25 21:34:00,
2013-10-25 17:39:00,45.2,32.9,30.23,NNW,336,0.6,2.3,62,0.00,BKN,SCT,0.00,33.0,WeatherDisplay:10.37,2013-10-25 21:39:00,
2013-10-25 17:44:00,45.1,32.8,30.23,WNW,296,0.7,2.3,62,0.00,BKN,SCT,0.00,21.0,WeatherDisplay:10.37,2013-10-25 21:44:00,
2013-10-25 17:49:00,44.9,32.7,30.23,South,177,0.2,2.3,62,0.00,BKN,SCT,0.00,60.0,WeatherDisplay:10.37,2013-10-25 21:49:00,
2013-10-25 17:54:00,44.9,32.3,30.22,SW,224,0.7,2.3,61,0.00,BKN,SCT,0.00,42.0,WeatherDisplay:10.37,2013-10-25 21:54:00,
2013-10-25 17:59:00,44.9,32.7,30.22,WNW,294,0.3,2.3,62,0.00,BKN,SCT,0.00,26.0,WeatherDisplay:10.37,2013-10-25 21:59:00,
2013-10-25 18:04:00,44.9,32.7,30.22,West,266,0.0,1.2,62,0.00,BKN,SCT,0.00,12.0,WeatherDisplay:10.37,2013-10-25 22:04:00,
2013-10-25 18:09:00,44.7,32.1,30.22,SE,142,0.4,1.2,61,0.00,BKN,SCT,0.00,11.0,WeatherDisplay:10.37,2013-10-25 22:09:00,
2013-10-25 18:14:00,44.5,31.9,30.22,NNW,328,0.0,2.3,61,0.00,BKN,SCT,0.00,9.0,WeatherDisplay:10.37,2013-10-25 22:14:00,
2013-10-25 18:19:00,44.3,31.7,30.22,SSE,161,0.1,1.2,61,0.00,BKN,SCT,0.00,7.0,WeatherDisplay:10.37,2013-10-25 22:19:00,
2013-10-25 18:24:00,44.1,31.5,30.22,East,96,0.6,3.5,61,0.00,BKN,SCT,0.00,5.0,WeatherDisplay:10.37,2013-10-25 22:24:00,
2013-10-25 18:29:00,43.8,31.2,30.22,East,96,0.0,0.0,61,0.00,BKN,SCT,0.00,0.0,WeatherDisplay:10.37,2013-10-25 22:29:00,
2013-10-25 18:34:00,43.5,30.9,30.22,SSW,194,0.0,0.0,61,0.00,BKN,SCT,0.00,0.0,WeatherDisplay:10.37,2013-10-25 22:34:00,
2013-10-25 18:39:00,43.3,31.5,30.22,SSW,194,0.0,0.0,63,0.00,BKN,SCT,0.00,0.0,WeatherDisplay:10.37,2013-10-25 22:39:00,
2013-10-25 18:44:00,43.1,31.4,30.22,SSW,194,0.0,0.0,63,0.00,BKN,SCT,0.00,0.0,WeatherDisplay:10.37,2013-10-25 22:44:00,
2013-10-25 18:49:00,42.8,31.5,30.22,SSW,213,0.0,0.0,64,0.00,BKN,SCT,0.00,0.0,WeatherDisplay:10.37,2013-10-25 22:49:00,
2013-10-25 18:54:00,42.5,31.6,30.21,SSW,213,0.0,0.0,65,0.00,BKN,SCT,0.00,0.0,WeatherDisplay:10.37,2013-10-25 22:54:00,
2013-10-25 18:59:00,42.2,31.6,30.21,SSW,213,0.0,0.0,66,0.00,BKN,SCT,0.00,0.0,WeatherDisplay:10.37,2013-10-25 22:59:00,
2013-10-25 19:04:00,41.9,31.4,30.21,SSW,213,0.0,0.0,66,0.00,SCT,,0.00,0.0,WeatherDisplay:10.37,2013-10-25 23:04:00,
2013-10-25 19:09:00,41.6,31.4,30.21,SSW,213,0.0,0.0,67,0.00,SCT,,0.00,0.0,WeatherDisplay:10.37,2013-10-25 23:09:00,
2013-10-25 19:14:00,41.3,31.5,30.21,SSW,213,0.0,0.0,68,0.00,SCT,,0.00,0.0,WeatherDisplay:10.37,2013-10-25 23:14:00,
2013-10-25 19:19:00,41.0,31.6,30.21,SSW,212,0.0,0.0,69,0.00,SCT,,0.00,0.0,WeatherDisplay:10.37,2013-10-25 23:19:00,
2013-10-25 19:24:00,40.7,31.7,30.21,SSW,213,0.0,0.0,70,0.00,SCT,,0.00,0.0,WeatherDisplay:10.37,2013-10-25 23:24:00,
2013-10-25 19:29:00,40.4,31.4,30.21,SSW,213,0.0,0.0,70,0.00,SCT,,0.00,0.0,WeatherDisplay:10.37,2013-10-25 23:29:00,
2013-10-25 19:34:00,40.1,31.4,30.21,SSW,213,0.0,0.0,71,0.00,SCT,,0.00,0.0,WeatherDisplay:10.37,2013-10-25 23:34:00,
2013-10-25 19:39:00,40.0,31.7,30.21,SSW,213,0.0,0.0,72,0.00,SCT,,0.00,0.0,WeatherDisplay:10.37,2013-10-25 23:39:00,
2013-10-25 19:44:00,39.8,31.5,30.20,SSW,212,0.0,0.0,72,0.00,SCT,,0.00,0.0,WeatherDisplay:10.37,2013-10-25 23:44:00,
2013-10-25 19:49:00,39.7,31.4,30.20,ESE,115,0.0,3.5,72,0.00,SCT,,0.00,0.0,WeatherDisplay:10.37,2013-10-25 23:49:00,
2013-10-25 19:54:00,39.6,31.3,30.20,ESE,121,0.0,0.0,72,0.00,SCT,,0.00,0.0,WeatherDisplay:10.37,2013-10-25 23:54:00,
2013-10-25 19:59:00,39.6,31.0,30.20,ESE,121,0.0,0.0,71,0.00,SCT,,0.00,0.0,WeatherDisplay:10.37,2013-10-25 23:59:00,
2013-10-25 20:04:00,39.4,30.8,30.20,SSW,196,0.0,0.0,71,0.00,FEW,SCT,0.00,0.0,WeatherDisplay:10.37,2013-10-26 00:04:00,
2013-10-25 20:09:00,39.3,30.7,30.19,SSW,202,0.0,1.2,71,0.00,FEW,SCT,0.00,0.0,WeatherDisplay:10.37,2013-10-26 00:09:00,
2013-10-25 20:14:00,39.2,30.9,30.20,South,182,0.0,1.2,72,0.00,FEW,SCT,0.00,0.0,WeatherDisplay:10.37,2013-10-26 00:14:00,
2013-10-25 20:19:00,39.1,30.8,30.19,South,182,0.0,0.0,72,0.00,FEW,SCT,0.00,0.0,WeatherDisplay:10.37,2013-10-26 00:19:00,
2013-10-25 20:25:00,38.9,30.6,30.19,SSE,155,0.0,0.0,72,0.00,FEW,SCT,0.00,0.0,WeatherDisplay:10.37,2013-10-26 00:25:00,
2013-10-25 20:30:00,38.8,30.5,30.19,SSW,200,0.0,0.0,72,0.00,FEW,SCT,0.00,0.0,WeatherDisplay:10.37,2013-10-26 00:30:00,
2013-10-25 20:35:00,38.8,30.5,30.19,SSW,200,0.0,0.0,72,0.00,FEW,SCT,0.00,0.0,WeatherDisplay:10.37,2013-10-26 00:35:00,
2013-10-25 20:40:00,38.7,30.4,30.18,SSW,196,0.0,0.0,72,0.00,FEW,SCT,0.00,0.0,WeatherDisplay:10.37,2013-10-26 00:40:00,
2013-10-25 20:45:00,38.7,30.8,30.18,SW,222,0.2,1.2,73,0.00,FEW,SCT,0.00,0.0,WeatherDisplay:10.37,2013-10-26 00:45:00,
2013-10-25 20:50:00,38.6,30.7,30.18,SW,222,0.0,0.0,73,0.00,FEW,SCT,0.00,0.0,WeatherDisplay:10.37,2013-10-26 00:50:00,
2013-10-25 20:55:00,38.5,30.6,30.18,SW,222,0.0,0.0,73,0.00,FEW,SCT,0.00,0.0,WeatherDisplay:10.37,2013-10-26 00:55:00,
2013-10-25 21:00:00,38.4,30.5,30.18,SW,222,0.0,0.0,73,0.00,FEW,SCT,0.00,0.0,WeatherDisplay:10.37,2013-10-26 01:00:00,
2013-10-25 21:05:00,38.2,30.3,30.18,SW,222,0.0,0.0,73,0.00,CLR,SCT,0.00,0.0,WeatherDisplay:10.37,2013-10-26 01:05:00,
2013-10-25 21:10:00,38.0,30.4,30.17,SW,222,0.0,1.2,74,0.00,CLR,SCT,0.00,0.0,WeatherDisplay:10.37,2013-10-26 01:10:00,
2013-10-25 21:15:00,37.8,30.3,30.17,SW,222,0.0,0.0,74,0.00,CLR,SCT,0.00,0.0,WeatherDisplay:10.37,2013-10-26 01:15:00,
2013-10-25 21:20:00,37.5,30.0,30.17,SW,222,0.0,0.0,74,0.00,CLR,SCT,0.00,0.0,WeatherDisplay:10.37,2013-10-26 01:20:00,
2013-10-25 21:25:00,37.3,30.1,30.16,SE,132,0.0,0.0,75,0.00,CLR,SCT,0.00,0.0,WeatherDisplay:10.37,2013-10-26 01:25:00,
2013-10-25 21:30:00,37.2,30.0,30.16,ESE,122,0.1,2.3,75,0.00,CLR,SCT,0.00,0.0,WeatherDisplay:10.37,2013-10-26 01:30:00,
2013-10-25 21:35:00,37.2,30.0,30.17,ESE,122,0.0,0.0,75,0.00,CLR,SCT,0.00,0.0,WeatherDisplay:10.37,2013-10-26 01:35:00,
2013-10-25 21:40:00,37.1,29.9,30.16,ESE,121,0.0,0.0,75,0.00,CLR,SCT,0.00,0.0,WeatherDisplay:10.37,2013-10-26 01:40:00,
2013-10-25 21:45:00,37.1,29.9,30.16,SSW,193,0.2,2.3,75,0.00,CLR,SCT,0.00,0.0,WeatherDisplay:10.37,2013-10-26 01:45:00,
2013-10-25 21:50:00,37.1,29.6,30.16,SSW,193,0.0,0.0,74,0.00,CLR,SCT,0.00,0.0,WeatherDisplay:10.37,2013-10-26 01:50:00,
2013-10-25 21:55:00,37.1,29.6,30.16,SE,143,0.0,0.0,74,0.00,CLR,SCT,0.00,0.0,WeatherDisplay:10.37,2013-10-26 01:55:00,
2013-10-25 22:00:00,37.1,29.6,30.16,SSE,148,0.1,1.2,74,0.00,CLR,SCT,0.00,0.0,WeatherDisplay:10.37,2013-10-26 02:00:00,
2013-10-25 22:05:00,37.1,29.6,30.16,WSW,247,0.7,1.2,74,0.00,CLR,SCT,0.00,0.0,WeatherDisplay:10.37,2013-10-26 02:05:00,
2013-10-25 22:10:00,37.1,29.6,30.16,SSW,213,0.0,1.2,74,0.00,CLR,SCT,0.00,0.0,WeatherDisplay:10.37,2013-10-26 02:10:00,
2013-10-25 22:15:00,37.0,29.5,30.16,SSW,205,0.0,1.2,74,0.00,CLR,SCT,0.00,0.0,WeatherDisplay:10.37,2013-10-26 02:15:00,
2013-10-25 22:20:00,37.0,29.5,30.16,SE,134,0.4,2.3,74,0.00,CLR,SCT,0.00,0.0,WeatherDisplay:10.37,2013-10-26 02:20:00,
2013-10-25 22:25:00,37.0,29.5,30.16,SSE,147,0.5,2.3,74,0.00,CLR,SCT,0.00,0.0,WeatherDisplay:10.37,2013-10-26 02:25:00,
2013-10-25 22:30:00,37.1,29.2,30.16,South,187,0.0,1.2,73,0.00,CLR,SCT,0.00,0.0,WeatherDisplay:10.37,2013-10-26 02:30:00,
2013-10-25 22:35:00,37.1,29.2,30.16,WSW,237,0.2,1.2,73,0.00,CLR,SCT,0.00,0.0,WeatherDisplay:10.37,2013-10-26 02:35:00,
2013-10-25 22:40:00,37.1,29.2,30.15,SSW,204,0.4,2.3,73,0.00,CLR,SCT,0.00,0.0,WeatherDisplay:10.37,2013-10-26 02:40:00,
2013-10-25 22:45:00,37.1,28.9,30.15,West,272,1.2,3.5,72,0.00,CLR,SCT,0.00,0.0,WeatherDisplay:10.37,2013-10-26 02:45:00,
2013-10-25 22:50:00,37.1,28.9,30.15,SSW,208,0.1,1.2,72,0.00,CLR,SCT,0.00,0.0,WeatherDisplay:10.37,2013-10-26 02:50:00,
2013-10-25 22:55:00,37.1,28.9,30.15,ESE,123,0.5,2.3,72,0.00,CLR,SCT,0.00,0.0,WeatherDisplay:10.37,2013-10-26 02:55:00,
2013-10-25 23:00:00,37.1,28.6,30.15,ESE,114,0.2,2.3,71,0.00,CLR,SCT,0.00,0.0,WeatherDisplay:10.37,2013-10-26 03:00:00,
2013-10-25 23:05:00,37.1,28.6,30.14,SSE,153,0.1,1.0,71,0.00,FEW,SCT,0.00,0.0,WeatherDisplay:10.37,2013-10-26 03:05:00,
2013-10-25 23:10:00,37.1,28.6,30.14,South,175,0.1,1.2,71,0.00,FEW,SCT,0.00,0.0,WeatherDisplay:10.37,2013-10-26 03:10:00,
2013-10-25 23:15:00,37.2,28.7,30.13,WNW,286,0.1,3.5,71,0.00,FEW,SCT,0.00,0.0,WeatherDisplay:10.37,2013-10-26 03:15:00,
2013-10-25 23:20:00,37.3,28.8,30.13,SSE,163,0.1,2.3,71,0.00,FEW,SCT,0.00,0.0,WeatherDisplay:10.37,2013-10-26 03:20:00,
2013-10-25 23:25:00,37.5,28.6,30.13,WSW,244,1.3,3.5,70,0.00,FEW,SCT,0.00,0.0,WeatherDisplay:10.37,2013-10-26 03:25:00,
2013-10-25 23:30:00,37.8,28.5,30.12,SE,130,0.6,5.8,69,0.00,FEW,SCT,0.00,0.0,WeatherDisplay:10.37,2013-10-26 03:30:00,
2013-10-25 23:35:00,38.1,28.8,30.13,SW,236,2.3,4.6,69,0.00,FEW,SCT,0.00,0.0,WeatherDisplay:10.37,2013-10-26 03:35:00,
2013-10-25 23:40:00,38.5,28.9,30.13,South,188,0.2,1.2,68,0.00,FEW,SCT,0.00,0.0,WeatherDisplay:10.37,2013-10-26 03:40:00,
2013-10-25 23:45:00,38.8,29.1,30.12,WSW,246,0.3,2.3,68,0.00,FEW,SCT,0.00,0.0,WeatherDisplay:10.37,2013-10-26 03:45:00,
2013-10-25 23:50:00,39.1,29.1,30.13,WNW,300,1.6,4.6,67,0.00,FEW,SCT,0.00,0.0,WeatherDisplay:10.37,2013-10-26 03:50:00,
2013-10-25 23:55:00,39.4,29.3,30.12,West,272,0.4,5.8,67,0.00,FEW,SCT,0.00,0.0,WeatherDisplay:10.37,2013-10-26 03:55:00,